sensor_id;sensor_type;location;lat;lon;timestamp;P1;durP1;ratioP1;P2;durP2;ratioP2
37201;SDS011;37799;52.390;6.136;2023-08-07T00:01:53;0.43;;;0.00;;
37201;SDS011;37799;52.390;6.136;2023-08-07T00:04:18;0.45;;;0.00;;
37201;SDS011;37799;52.390;6.136;2023-08-07T00:06:43;0.85;;;0.10;;
37201;SDS011;37799;52.390;6.136;2023-08-07T00:09:08;1.02;;;0.00;;
37201;SDS011;37799;52.390;6.136;2023-08-07T00:11:34;0.10;;;0.00;;
37201;SDS011;37799;52.390;6.136;2023-08-07T00:13:59;0.82;;;0.10;;
37201;SDS011;37799;52.390;6.136;2023-08-07T00:16:25;0.30;;;0.00;;
37201;SDS011;37799;52.390;6.136;2023-08-07T00:18:51;1.20;;;0.45;;
37201;SDS011;37799;52.390;6.136;2023-08-07T00:21:20;0.30;;;0.10;;
37201;SDS011;37799;52.390;6.136;2023-08-07T00:23:46;0.95;;;0.10;;
37201;SDS011;37799;52.390;6.136;2023-08-07T00:26:11;1.85;;;0.47;;
37201;SDS011;37799;52.390;6.136;2023-08-07T00:28:36;0.10;;;0.00;;
37201;SDS011;37799;52.390;6.136;2023-08-07T00:31:02;2.10;;;0.57;;
37201;SDS011;37799;52.390;6.136;2023-08-07T00:33:27;0.60;;;0.10;;
37201;SDS011;37799;52.390;6.136;2023-08-07T00:35:52;1.95;;;0.00;;
37201;SDS011;37799;52.390;6.136;2023-08-07T00:38:18;1.00;;;0.20;;
37201;SDS011;37799;52.390;6.136;2023-08-07T00:40:43;1.85;;;0.65;;
37201;SDS011;37799;52.390;6.136;2023-08-07T00:43:08;1.30;;;0.38;;
37201;SDS011;37799;52.390;6.136;2023-08-07T00:45:35;1.08;;;0.13;;
37201;SDS011;37799;52.390;6.136;2023-08-07T00:48:04;0.73;;;0.13;;
37201;SDS011;37799;52.390;6.136;2023-08-07T00:50:29;1.27;;;0.10;;
37201;SDS011;37799;52.390;6.136;2023-08-07T00:52:55;2.65;;;0.05;;
37201;SDS011;37799;52.390;6.136;2023-08-07T00:55:20;2.47;;;0.40;;
37201;SDS011;37799;52.390;6.136;2023-08-07T00:57:46;1.35;;;0.30;;
37201;SDS011;37799;52.390;6.136;2023-08-07T01:00:11;3.53;;;0.10;;
37201;SDS011;37799;52.390;6.136;2023-08-07T01:02:38;2.03;;;0.10;;
37201;SDS011;37799;52.390;6.136;2023-08-07T01:05:03;3.42;;;0.20;;
37201;SDS011;37799;52.390;6.136;2023-08-07T01:07:29;2.97;;;0.30;;
37201;SDS011;37799;52.390;6.136;2023-08-07T01:09:54;2.42;;;0.60;;
37201;SDS011;37799;52.390;6.136;2023-08-07T01:12:24;1.27;;;0.30;;
37201;SDS011;37799;52.390;6.136;2023-08-07T01:14:56;2.00;;;0.20;;
37201;SDS011;37799;52.390;6.136;2023-08-07T01:17:27;0.73;;;0.10;;
37201;SDS011;37799;52.390;6.136;2023-08-07T01:19:53;3.70;;;0.20;;
37201;SDS011;37799;52.390;6.136;2023-08-07T01:22:20;0.70;;;0.10;;
37201;SDS011;37799;52.390;6.136;2023-08-07T01:24:47;2.22;;;0.10;;
37201;SDS011;37799;52.390;6.136;2023-08-07T01:32:42;0.90;;;0.10;;
37201;SDS011;37799;52.390;6.136;2023-08-07T01:35:14;1.70;;;0.20;;
37201;SDS011;37799;52.390;6.136;2023-08-07T01:37:42;3.63;;;0.30;;
37201;SDS011;37799;52.390;6.136;2023-08-07T01:40:10;4.80;;;0.10;;
37201;SDS011;37799;52.390;6.136;2023-08-07T01:42:38;4.55;;;0.25;;
37201;SDS011;37799;52.390;6.136;2023-08-07T01:45:04;0.50;;;0.10;;
37201;SDS011;37799;52.390;6.136;2023-08-07T01:47:30;0.95;;;0.20;;
37201;SDS011;37799;52.390;6.136;2023-08-07T01:49:55;2.05;;;0.20;;
37201;SDS011;37799;52.390;6.136;2023-08-07T01:52:21;1.33;;;0.17;;
37201;SDS011;37799;52.390;6.136;2023-08-07T01:54:46;0.85;;;0.17;;
37201;SDS011;37799;52.390;6.136;2023-08-07T01:57:11;2.72;;;0.73;;
37201;SDS011;37799;52.390;6.136;2023-08-07T01:59:37;3.20;;;0.70;;
37201;SDS011;37799;52.390;6.136;2023-08-07T02:02:02;2.63;;;0.30;;
37201;SDS011;37799;52.390;6.136;2023-08-07T02:04:28;2.92;;;0.40;;
37201;SDS011;37799;52.390;6.136;2023-08-07T02:06:53;3.92;;;0.82;;
37201;SDS011;37799;52.390;6.136;2023-08-07T02:09:18;4.93;;;0.43;;
37201;SDS011;37799;52.390;6.136;2023-08-07T02:11:44;2.33;;;0.22;;
37201;SDS011;37799;52.390;6.136;2023-08-07T02:14:09;3.08;;;0.50;;
37201;SDS011;37799;52.390;6.136;2023-08-07T02:16:35;6.15;;;0.40;;
37201;SDS011;37799;52.390;6.136;2023-08-07T02:19:01;2.97;;;0.38;;
37201;SDS011;37799;52.390;6.136;2023-08-07T02:21:26;2.33;;;0.25;;
37201;SDS011;37799;52.390;6.136;2023-08-07T02:23:51;8.25;;;1.30;;
37201;SDS011;37799;52.390;6.136;2023-08-07T02:26:17;7.72;;;2.40;;
37201;SDS011;37799;52.390;6.136;2023-08-07T02:28:42;13.05;;;3.97;;
37201;SDS011;37799;52.390;6.136;2023-08-07T02:31:07;14.30;;;4.85;;
37201;SDS011;37799;52.390;6.136;2023-08-07T02:33:33;14.68;;;5.80;;
37201;SDS011;37799;52.390;6.136;2023-08-07T02:35:59;17.42;;;7.07;;
37201;SDS011;37799;52.390;6.136;2023-08-07T02:38:25;19.65;;;7.63;;
37201;SDS011;37799;52.390;6.136;2023-08-07T02:40:50;16.77;;;6.10;;
37201;SDS011;37799;52.390;6.136;2023-08-07T02:43:15;17.35;;;6.00;;
37201;SDS011;37799;52.390;6.136;2023-08-07T02:45:41;12.85;;;5.05;;
37201;SDS011;37799;52.390;6.136;2023-08-07T02:48:06;11.82;;;4.43;;
37201;SDS011;37799;52.390;6.136;2023-08-07T02:50:31;13.10;;;3.50;;
37201;SDS011;37799;52.390;6.136;2023-08-07T02:53:00;9.73;;;3.13;;
37201;SDS011;37799;52.390;6.136;2023-08-07T02:55:27;8.68;;;2.58;;
37201;SDS011;37799;52.390;6.136;2023-08-07T02:57:52;9.20;;;2.15;;
37201;SDS011;37799;52.390;6.136;2023-08-07T03:00:18;7.93;;;1.63;;
37201;SDS011;37799;52.390;6.136;2023-08-07T03:02:43;4.25;;;1.27;;
37201;SDS011;37799;52.390;6.136;2023-08-07T03:05:08;5.35;;;1.30;;
37201;SDS011;37799;52.390;6.136;2023-08-07T03:07:34;6.68;;;1.20;;
37201;SDS011;37799;52.390;6.136;2023-08-07T03:09:59;7.55;;;1.40;;
37201;SDS011;37799;52.390;6.136;2023-08-07T03:12:25;5.43;;;1.15;;
37201;SDS011;37799;52.390;6.136;2023-08-07T03:14:50;4.85;;;1.10;;
37201;SDS011;37799;52.390;6.136;2023-08-07T03:17:16;5.38;;;1.30;;
37201;SDS011;37799;52.390;6.136;2023-08-07T03:19:42;5.70;;;1.25;;
37201;SDS011;37799;52.390;6.136;2023-08-07T03:22:08;5.60;;;1.38;;
37201;SDS011;37799;52.390;6.136;2023-08-07T03:24:34;5.72;;;0.90;;
37201;SDS011;37799;52.390;6.136;2023-08-07T03:26:59;4.07;;;1.02;;
37201;SDS011;37799;52.390;6.136;2023-08-07T03:29:24;7.60;;;1.17;;
37201;SDS011;37799;52.390;6.136;2023-08-07T03:31:50;6.43;;;1.10;;
37201;SDS011;37799;52.390;6.136;2023-08-07T03:34:15;6.10;;;0.80;;
37201;SDS011;37799;52.390;6.136;2023-08-07T03:36:40;4.15;;;0.63;;
37201;SDS011;37799;52.390;6.136;2023-08-07T03:39:06;3.35;;;0.63;;
37201;SDS011;37799;52.390;6.136;2023-08-07T03:41:31;4.93;;;0.98;;
37201;SDS011;37799;52.390;6.136;2023-08-07T03:43:57;5.10;;;1.08;;
37201;SDS011;37799;52.390;6.136;2023-08-07T03:46:22;3.15;;;0.77;;
37201;SDS011;37799;52.390;6.136;2023-08-07T03:48:47;5.95;;;1.23;;
37201;SDS011;37799;52.390;6.136;2023-08-07T03:51:13;5.53;;;1.30;;
37201;SDS011;37799;52.390;6.136;2023-08-07T03:53:39;4.25;;;1.30;;
37201;SDS011;37799;52.390;6.136;2023-08-07T03:56:05;5.90;;;1.05;;
37201;SDS011;37799;52.390;6.136;2023-08-07T03:58:30;6.43;;;1.42;;
37201;SDS011;37799;52.390;6.136;2023-08-07T04:00:56;5.72;;;1.42;;
37201;SDS011;37799;52.390;6.136;2023-08-07T04:03:21;6.28;;;0.77;;
37201;SDS011;37799;52.390;6.136;2023-08-07T04:05:47;6.07;;;0.90;;
37201;SDS011;37799;52.390;6.136;2023-08-07T04:08:16;5.95;;;0.85;;
37201;SDS011;37799;52.390;6.136;2023-08-07T04:10:41;3.60;;;0.68;;
37201;SDS011;37799;52.390;6.136;2023-08-07T04:13:06;3.15;;;0.70;;
37201;SDS011;37799;52.390;6.136;2023-08-07T04:15:32;3.38;;;0.70;;
37201;SDS011;37799;52.390;6.136;2023-08-07T04:17:57;4.97;;;0.52;;
37201;SDS011;37799;52.390;6.136;2023-08-07T04:20:22;4.95;;;0.88;;
37201;SDS011;37799;52.390;6.136;2023-08-07T04:22:48;4.45;;;0.60;;
37201;SDS011;37799;52.390;6.136;2023-08-07T04:25:13;2.80;;;0.35;;
37201;SDS011;37799;52.390;6.136;2023-08-07T04:27:39;3.80;;;0.40;;
37201;SDS011;37799;52.390;6.136;2023-08-07T04:30:05;3.42;;;0.60;;
37201;SDS011;37799;52.390;6.136;2023-08-07T04:32:31;3.33;;;0.35;;
37201;SDS011;37799;52.390;6.136;2023-08-07T04:34:56;2.42;;;0.30;;
37201;SDS011;37799;52.390;6.136;2023-08-07T04:37:22;2.78;;;0.57;;
37201;SDS011;37799;52.390;6.136;2023-08-07T04:39:47;3.13;;;0.50;;
37201;SDS011;37799;52.390;6.136;2023-08-07T04:42:13;4.80;;;0.50;;
37201;SDS011;37799;52.390;6.136;2023-08-07T04:44:38;2.53;;;0.47;;
37201;SDS011;37799;52.390;6.136;2023-08-07T04:47:04;3.78;;;0.68;;
37201;SDS011;37799;52.390;6.136;2023-08-07T04:49:29;4.40;;;0.50;;
37201;SDS011;37799;52.390;6.136;2023-08-07T04:51:54;3.30;;;0.70;;
37201;SDS011;37799;52.390;6.136;2023-08-07T04:54:20;2.78;;;0.52;;
37201;SDS011;37799;52.390;6.136;2023-08-07T04:56:45;5.45;;;0.50;;
37201;SDS011;37799;52.390;6.136;2023-08-07T04:59:11;6.38;;;0.80;;
37201;SDS011;37799;52.390;6.136;2023-08-07T05:01:36;4.75;;;0.68;;
37201;SDS011;37799;52.390;6.136;2023-08-07T05:04:02;4.22;;;0.68;;
37201;SDS011;37799;52.390;6.136;2023-08-07T05:06:27;8.90;;;1.10;;
37201;SDS011;37799;52.390;6.136;2023-08-07T05:08:52;4.45;;;0.70;;
37201;SDS011;37799;52.390;6.136;2023-08-07T05:11:18;5.03;;;0.73;;
37201;SDS011;37799;52.390;6.136;2023-08-07T05:13:45;4.45;;;0.63;;
37201;SDS011;37799;52.390;6.136;2023-08-07T05:16:10;3.92;;;0.65;;
37201;SDS011;37799;52.390;6.136;2023-08-07T05:18:36;2.78;;;0.50;;
37201;SDS011;37799;52.390;6.136;2023-08-07T05:21:01;2.38;;;0.55;;
37201;SDS011;37799;52.390;6.136;2023-08-07T05:23:27;4.65;;;0.68;;
37201;SDS011;37799;52.390;6.136;2023-08-07T05:25:52;6.85;;;0.82;;
37201;SDS011;37799;52.390;6.136;2023-08-07T05:28:17;3.78;;;0.60;;
37201;SDS011;37799;52.390;6.136;2023-08-07T05:30:43;3.20;;;0.50;;
37201;SDS011;37799;52.390;6.136;2023-08-07T05:33:08;3.47;;;0.65;;
37201;SDS011;37799;52.390;6.136;2023-08-07T05:35:33;4.80;;;0.77;;
37201;SDS011;37799;52.390;6.136;2023-08-07T05:37:59;5.10;;;0.63;;
37201;SDS011;37799;52.390;6.136;2023-08-07T05:40:24;4.50;;;0.65;;
37201;SDS011;37799;52.390;6.136;2023-08-07T05:42:49;2.10;;;0.60;;
37201;SDS011;37799;52.390;6.136;2023-08-07T05:45:14;4.68;;;0.82;;
37201;SDS011;37799;52.390;6.136;2023-08-07T05:47:40;3.75;;;0.50;;
37201;SDS011;37799;52.390;6.136;2023-08-07T05:50:05;2.30;;;0.40;;
37201;SDS011;37799;52.390;6.136;2023-08-07T05:52:31;5.22;;;1.10;;
37201;SDS011;37799;52.390;6.136;2023-08-07T05:54:56;5.05;;;0.73;;
37201;SDS011;37799;52.390;6.136;2023-08-07T05:57:22;4.13;;;0.57;;
37201;SDS011;37799;52.390;6.136;2023-08-07T05:59:47;9.23;;;1.42;;
37201;SDS011;37799;52.390;6.136;2023-08-07T06:02:12;5.13;;;1.02;;
37201;SDS011;37799;52.390;6.136;2023-08-07T06:04:38;4.70;;;0.68;;
37201;SDS011;37799;52.390;6.136;2023-08-07T06:07:03;2.10;;;0.50;;
37201;SDS011;37799;52.390;6.136;2023-08-07T06:09:30;5.03;;;0.70;;
37201;SDS011;37799;52.390;6.136;2023-08-07T06:11:55;3.65;;;0.88;;
37201;SDS011;37799;52.390;6.136;2023-08-07T06:14:21;4.15;;;0.55;;
37201;SDS011;37799;52.390;6.136;2023-08-07T06:16:46;3.30;;;0.63;;
37201;SDS011;37799;52.390;6.136;2023-08-07T06:19:11;2.67;;;0.60;;
37201;SDS011;37799;52.390;6.136;2023-08-07T06:21:37;5.93;;;1.13;;
37201;SDS011;37799;52.390;6.136;2023-08-07T06:24:02;5.20;;;0.80;;
37201;SDS011;37799;52.390;6.136;2023-08-07T06:26:28;7.82;;;1.02;;
37201;SDS011;37799;52.390;6.136;2023-08-07T06:28:53;8.57;;;1.48;;
37201;SDS011;37799;52.390;6.136;2023-08-07T06:31:18;7.55;;;0.70;;
37201;SDS011;37799;52.390;6.136;2023-08-07T06:33:44;3.67;;;0.77;;
37201;SDS011;37799;52.390;6.136;2023-08-07T06:36:09;5.22;;;0.75;;
37201;SDS011;37799;52.390;6.136;2023-08-07T06:38:34;8.65;;;0.68;;
37201;SDS011;37799;52.390;6.136;2023-08-07T06:41:00;4.53;;;1.05;;
37201;SDS011;37799;52.390;6.136;2023-08-07T06:43:26;5.03;;;0.82;;
37201;SDS011;37799;52.390;6.136;2023-08-07T06:45:52;6.28;;;1.10;;
37201;SDS011;37799;52.390;6.136;2023-08-07T06:48:18;7.05;;;1.10;;
37201;SDS011;37799;52.390;6.136;2023-08-07T06:50:44;8.07;;;1.27;;
37201;SDS011;37799;52.390;6.136;2023-08-07T06:53:11;9.90;;;1.42;;
37201;SDS011;37799;52.390;6.136;2023-08-07T06:55:36;10.95;;;1.13;;
37201;SDS011;37799;52.390;6.136;2023-08-07T06:58:01;6.47;;;1.48;;
37201;SDS011;37799;52.390;6.136;2023-08-07T07:00:27;8.32;;;0.70;;
37201;SDS011;37799;52.390;6.136;2023-08-07T07:02:52;5.90;;;0.85;;
37201;SDS011;37799;52.390;6.136;2023-08-07T07:05:18;4.63;;;0.85;;
37201;SDS011;37799;52.390;6.136;2023-08-07T07:07:43;4.93;;;0.70;;
37201;SDS011;37799;52.390;6.136;2023-08-07T07:10:08;8.10;;;0.80;;
37201;SDS011;37799;52.390;6.136;2023-08-07T07:12:34;8.50;;;0.93;;
37201;SDS011;37799;52.390;6.136;2023-08-07T07:14:59;5.47;;;0.50;;
37201;SDS011;37799;52.390;6.136;2023-08-07T07:17:25;5.88;;;0.73;;
37201;SDS011;37799;52.390;6.136;2023-08-07T07:19:50;5.25;;;0.55;;
37201;SDS011;37799;52.390;6.136;2023-08-07T07:22:15;4.05;;;0.95;;
37201;SDS011;37799;52.390;6.136;2023-08-07T07:24:40;4.80;;;0.60;;
37201;SDS011;37799;52.390;6.136;2023-08-07T07:27:06;3.22;;;0.52;;
37201;SDS011;37799;52.390;6.136;2023-08-07T07:29:31;3.60;;;0.50;;
37201;SDS011;37799;52.390;6.136;2023-08-07T07:31:57;4.80;;;0.90;;
37201;SDS011;37799;52.390;6.136;2023-08-07T07:34:22;5.93;;;0.82;;
37201;SDS011;37799;52.390;6.136;2023-08-07T07:36:48;4.05;;;0.73;;
37201;SDS011;37799;52.390;6.136;2023-08-07T07:39:13;5.72;;;0.60;;
37201;SDS011;37799;52.390;6.136;2023-08-07T07:41:38;4.95;;;1.10;;
37201;SDS011;37799;52.390;6.136;2023-08-07T07:44:04;5.82;;;1.10;;
37201;SDS011;37799;52.390;6.136;2023-08-07T07:46:29;3.65;;;0.43;;
37201;SDS011;37799;52.390;6.136;2023-08-07T07:48:56;4.13;;;0.47;;
37201;SDS011;37799;52.390;6.136;2023-08-07T07:51:22;4.95;;;0.50;;
37201;SDS011;37799;52.390;6.136;2023-08-07T07:53:48;5.28;;;0.63;;
37201;SDS011;37799;52.390;6.136;2023-08-07T07:56:14;4.43;;;0.60;;
37201;SDS011;37799;52.390;6.136;2023-08-07T07:58:39;4.30;;;0.80;;
37201;SDS011;37799;52.390;6.136;2023-08-07T08:01:06;5.97;;;1.25;;
37201;SDS011;37799;52.390;6.136;2023-08-07T08:03:31;7.40;;;0.75;;
37201;SDS011;37799;52.390;6.136;2023-08-07T08:05:57;3.20;;;0.63;;
37201;SDS011;37799;52.390;6.136;2023-08-07T08:08:23;4.72;;;0.73;;
37201;SDS011;37799;52.390;6.136;2023-08-07T08:10:48;4.82;;;0.60;;
37201;SDS011;37799;52.390;6.136;2023-08-07T08:13:15;5.45;;;1.20;;
37201;SDS011;37799;52.390;6.136;2023-08-07T08:15:41;6.38;;;0.77;;
37201;SDS011;37799;52.390;6.136;2023-08-07T08:18:07;5.95;;;0.60;;
37201;SDS011;37799;52.390;6.136;2023-08-07T08:20:32;6.40;;;0.70;;
37201;SDS011;37799;52.390;6.136;2023-08-07T08:22:58;5.22;;;0.77;;
37201;SDS011;37799;52.390;6.136;2023-08-07T08:25:23;2.33;;;0.40;;
37201;SDS011;37799;52.390;6.136;2023-08-07T08:27:49;4.70;;;0.57;;
37201;SDS011;37799;52.390;6.136;2023-08-07T08:30:16;4.85;;;0.80;;
37201;SDS011;37799;52.390;6.136;2023-08-07T08:32:42;4.28;;;0.52;;
37201;SDS011;37799;52.390;6.136;2023-08-07T08:35:08;3.70;;;0.77;;
37201;SDS011;37799;52.390;6.136;2023-08-07T08:37:34;2.75;;;0.38;;
37201;SDS011;37799;52.390;6.136;2023-08-07T08:39:59;3.72;;;0.60;;
37201;SDS011;37799;52.390;6.136;2023-08-07T08:42:25;5.35;;;0.70;;
37201;SDS011;37799;52.390;6.136;2023-08-07T08:44:51;2.58;;;0.40;;
37201;SDS011;37799;52.390;6.136;2023-08-07T08:47:18;3.65;;;0.52;;
37201;SDS011;37799;52.390;6.136;2023-08-07T08:50:18;3.90;;;0.40;;
37201;SDS011;37799;52.390;6.136;2023-08-07T08:52:40;4.93;;;0.60;;
37201;SDS011;37799;52.390;6.136;2023-08-07T08:55:07;3.60;;;0.60;;
37201;SDS011;37799;52.390;6.136;2023-08-07T08:57:33;4.78;;;0.32;;
37201;SDS011;37799;52.390;6.136;2023-08-07T09:00:00;3.42;;;0.50;;
37201;SDS011;37799;52.390;6.136;2023-08-07T09:02:29;3.92;;;0.60;;
37201;SDS011;37799;52.390;6.136;2023-08-07T09:04:55;5.70;;;0.65;;
37201;SDS011;37799;52.390;6.136;2023-08-07T09:07:20;3.05;;;0.38;;
37201;SDS011;37799;52.390;6.136;2023-08-07T09:09:47;5.63;;;0.60;;
37201;SDS011;37799;52.390;6.136;2023-08-07T09:12:25;3.80;;;0.50;;
37201;SDS011;37799;52.390;6.136;2023-08-07T09:14:54;4.68;;;0.68;;
37201;SDS011;37799;52.390;6.136;2023-08-07T09:17:23;5.53;;;0.80;;
37201;SDS011;37799;52.390;6.136;2023-08-07T09:19:51;4.18;;;0.88;;
37201;SDS011;37799;52.390;6.136;2023-08-07T09:22:18;3.80;;;0.38;;
37201;SDS011;37799;52.390;6.136;2023-08-07T09:24:44;2.35;;;0.50;;
37201;SDS011;37799;52.390;6.136;2023-08-07T09:27:10;2.58;;;0.40;;
37201;SDS011;37799;52.390;6.136;2023-08-07T09:29:38;2.22;;;0.20;;
37201;SDS011;37799;52.390;6.136;2023-08-07T09:32:08;5.50;;;0.63;;
37201;SDS011;37799;52.390;6.136;2023-08-07T09:34:36;3.67;;;0.30;;
37201;SDS011;37799;52.390;6.136;2023-08-07T09:37:04;3.95;;;0.50;;
37201;SDS011;37799;52.390;6.136;2023-08-07T09:39:29;6.35;;;0.45;;
37201;SDS011;37799;52.390;6.136;2023-08-07T09:41:55;5.13;;;0.70;;
37201;SDS011;37799;52.390;6.136;2023-08-07T09:44:20;3.03;;;0.60;;
37201;SDS011;37799;52.390;6.136;2023-08-07T09:46:46;1.95;;;0.15;;
37201;SDS011;37799;52.390;6.136;2023-08-07T09:49:12;2.75;;;0.40;;
37201;SDS011;37799;52.390;6.136;2023-08-07T09:51:43;2.50;;;0.30;;
37201;SDS011;37799;52.390;6.136;2023-08-07T09:54:10;2.83;;;0.25;;
37201;SDS011;37799;52.390;6.136;2023-08-07T09:56:35;2.58;;;0.30;;
37201;SDS011;37799;52.390;6.136;2023-08-07T09:59:01;3.22;;;0.20;;
37201;SDS011;37799;52.390;6.136;2023-08-07T10:01:27;4.85;;;1.02;;
37201;SDS011;37799;52.390;6.136;2023-08-07T10:03:52;1.58;;;0.30;;
37201;SDS011;37799;52.390;6.136;2023-08-07T10:06:18;2.53;;;0.30;;
37201;SDS011;37799;52.390;6.136;2023-08-07T10:08:44;2.53;;;0.20;;
37201;SDS011;37799;52.390;6.136;2023-08-07T10:11:11;3.35;;;0.30;;
37201;SDS011;37799;52.390;6.136;2023-08-07T10:13:40;1.40;;;0.30;;
37201;SDS011;37799;52.390;6.136;2023-08-07T10:16:06;2.67;;;0.40;;
37201;SDS011;37799;52.390;6.136;2023-08-07T10:18:32;1.85;;;0.32;;
37201;SDS011;37799;52.390;6.136;2023-08-07T10:20:57;2.28;;;0.30;;
37201;SDS011;37799;52.390;6.136;2023-08-07T10:23:25;2.47;;;0.30;;
37201;SDS011;37799;52.390;6.136;2023-08-07T10:25:50;5.10;;;0.40;;
37201;SDS011;37799;52.390;6.136;2023-08-07T10:28:17;2.53;;;0.40;;
37201;SDS011;37799;52.390;6.136;2023-08-07T10:30:44;2.20;;;0.20;;
37201;SDS011;37799;52.390;6.136;2023-08-07T10:33:10;3.53;;;0.52;;
37201;SDS011;37799;52.390;6.136;2023-08-07T10:35:37;5.07;;;0.60;;
37201;SDS011;37799;52.390;6.136;2023-08-07T10:38:10;3.75;;;0.50;;
37201;SDS011;37799;52.390;6.136;2023-08-07T10:43:42;4.07;;;0.63;;
37201;SDS011;37799;52.390;6.136;2023-08-07T10:46:12;3.28;;;0.40;;
37201;SDS011;37799;52.390;6.136;2023-08-07T10:51:06;2.33;;;0.28;;
37201;SDS011;37799;52.390;6.136;2023-08-07T10:56:03;3.33;;;0.43;;
37201;SDS011;37799;52.390;6.136;2023-08-07T10:58:32;4.40;;;0.63;;
37201;SDS011;37799;52.390;6.136;2023-08-07T11:01:15;1.77;;;0.30;;
37201;SDS011;37799;52.390;6.136;2023-08-07T11:03:43;2.05;;;0.30;;
37201;SDS011;37799;52.390;6.136;2023-08-07T11:06:09;2.08;;;0.30;;
37201;SDS011;37799;52.390;6.136;2023-08-07T11:08:35;3.78;;;0.43;;
37201;SDS011;37799;52.390;6.136;2023-08-07T11:11:05;2.28;;;0.30;;
37201;SDS011;37799;52.390;6.136;2023-08-07T11:13:31;2.95;;;0.35;;
37201;SDS011;37799;52.390;6.136;2023-08-07T11:15:58;2.45;;;0.30;;
37201;SDS011;37799;52.390;6.136;2023-08-07T11:18:24;4.15;;;0.50;;
37201;SDS011;37799;52.390;6.136;2023-08-07T11:20:50;2.42;;;0.35;;
37201;SDS011;37799;52.390;6.136;2023-08-07T11:23:22;3.67;;;0.60;;
37201;SDS011;37799;52.390;6.136;2023-08-07T11:25:48;3.30;;;0.40;;
37201;SDS011;37799;52.390;6.136;2023-08-07T11:28:13;3.28;;;0.57;;
37201;SDS011;37799;52.390;6.136;2023-08-07T11:30:39;1.98;;;0.30;;
37201;SDS011;37799;52.390;6.136;2023-08-07T11:33:05;7.05;;;0.93;;
37201;SDS011;37799;52.390;6.136;2023-08-07T11:35:31;4.43;;;0.55;;
37201;SDS011;37799;52.390;6.136;2023-08-07T11:37:56;6.00;;;0.70;;
37201;SDS011;37799;52.390;6.136;2023-08-07T11:40:23;5.25;;;0.40;;
37201;SDS011;37799;52.390;6.136;2023-08-07T11:42:48;2.97;;;0.30;;
37201;SDS011;37799;52.390;6.136;2023-08-07T11:45:14;3.30;;;0.30;;
37201;SDS011;37799;52.390;6.136;2023-08-07T11:47:40;1.83;;;0.40;;
37201;SDS011;37799;52.390;6.136;2023-08-07T11:50:06;2.33;;;0.50;;
37201;SDS011;37799;52.390;6.136;2023-08-07T11:52:32;1.23;;;0.30;;
37201;SDS011;37799;52.390;6.136;2023-08-07T11:54:58;2.42;;;0.30;;
37201;SDS011;37799;52.390;6.136;2023-08-07T11:57:29;4.20;;;0.30;;
37201;SDS011;37799;52.390;6.136;2023-08-07T11:59:55;7.68;;;0.47;;
37201;SDS011;37799;52.390;6.136;2023-08-07T12:02:26;2.65;;;0.40;;
37201;SDS011;37799;52.390;6.136;2023-08-07T12:04:56;3.40;;;0.47;;
37201;SDS011;37799;52.390;6.136;2023-08-07T12:09:51;3.55;;;0.40;;
37201;SDS011;37799;52.390;6.136;2023-08-07T12:12:19;4.22;;;0.70;;
37201;SDS011;37799;52.390;6.136;2023-08-07T12:14:45;2.47;;;0.30;;
37201;SDS011;37799;52.390;6.136;2023-08-07T12:17:10;1.73;;;0.30;;
37201;SDS011;37799;52.390;6.136;2023-08-07T12:19:37;1.25;;;0.22;;
37201;SDS011;37799;52.390;6.136;2023-08-07T12:22:05;3.10;;;0.38;;
37201;SDS011;37799;52.390;6.136;2023-08-07T12:24:31;3.40;;;0.20;;
37201;SDS011;37799;52.390;6.136;2023-08-07T12:26:57;2.27;;;0.20;;
37201;SDS011;37799;52.390;6.136;2023-08-07T12:29:22;2.92;;;0.22;;
37201;SDS011;37799;52.390;6.136;2023-08-07T12:31:48;1.08;;;0.20;;
37201;SDS011;37799;52.390;6.136;2023-08-07T12:34:14;3.97;;;0.50;;
37201;SDS011;37799;52.390;6.136;2023-08-07T12:36:41;5.72;;;0.40;;
37201;SDS011;37799;52.390;6.136;2023-08-07T12:39:06;1.40;;;0.20;;
37201;SDS011;37799;52.390;6.136;2023-08-07T12:41:31;1.53;;;0.20;;
37201;SDS011;37799;52.390;6.136;2023-08-07T12:43:57;3.50;;;0.38;;
37201;SDS011;37799;52.390;6.136;2023-08-07T12:46:24;1.65;;;0.20;;
37201;SDS011;37799;52.390;6.136;2023-08-07T12:48:49;1.98;;;0.30;;
37201;SDS011;37799;52.390;6.136;2023-08-07T12:51:15;3.10;;;0.30;;
37201;SDS011;37799;52.390;6.136;2023-08-07T12:53:41;1.27;;;0.20;;
37201;SDS011;37799;52.390;6.136;2023-08-07T12:56:07;3.22;;;0.40;;
37201;SDS011;37799;52.390;6.136;2023-08-07T12:58:32;1.15;;;0.28;;
37201;SDS011;37799;52.390;6.136;2023-08-07T13:00:58;1.90;;;0.20;;
37201;SDS011;37799;52.390;6.136;2023-08-07T13:03:24;1.55;;;0.20;;
37201;SDS011;37799;52.390;6.136;2023-08-07T13:05:50;5.75;;;0.50;;
37201;SDS011;37799;52.390;6.136;2023-08-07T13:08:15;2.90;;;0.22;;
37201;SDS011;37799;52.390;6.136;2023-08-07T13:10:40;2.40;;;0.38;;
37201;SDS011;37799;52.390;6.136;2023-08-07T13:13:07;3.67;;;0.40;;
37201;SDS011;37799;52.390;6.136;2023-08-07T13:15:32;3.75;;;0.40;;
37201;SDS011;37799;52.390;6.136;2023-08-07T13:17:57;2.22;;;0.30;;
37201;SDS011;37799;52.390;6.136;2023-08-07T13:20:23;4.03;;;0.40;;
37201;SDS011;37799;52.390;6.136;2023-08-07T13:22:50;2.33;;;0.20;;
37201;SDS011;37799;52.390;6.136;2023-08-07T13:25:16;3.15;;;0.20;;
37201;SDS011;37799;52.390;6.136;2023-08-07T13:27:41;2.40;;;0.40;;
37201;SDS011;37799;52.390;6.136;2023-08-07T13:30:07;2.38;;;0.47;;
37201;SDS011;37799;52.390;6.136;2023-08-07T13:32:33;2.42;;;0.35;;
37201;SDS011;37799;52.390;6.136;2023-08-07T13:34:58;2.08;;;0.50;;
37201;SDS011;37799;52.390;6.136;2023-08-07T13:37:24;3.80;;;0.40;;
37201;SDS011;37799;52.390;6.136;2023-08-07T13:39:50;1.65;;;0.20;;
37201;SDS011;37799;52.390;6.136;2023-08-07T13:42:17;3.00;;;0.35;;
37201;SDS011;37799;52.390;6.136;2023-08-07T13:44:43;1.30;;;0.25;;
37201;SDS011;37799;52.390;6.136;2023-08-07T13:47:09;1.75;;;0.40;;
37201;SDS011;37799;52.390;6.136;2023-08-07T13:49:36;2.88;;;0.28;;
37201;SDS011;37799;52.390;6.136;2023-08-07T13:52:05;2.72;;;0.40;;
37201;SDS011;37799;52.390;6.136;2023-08-07T13:54:30;2.00;;;0.30;;
37201;SDS011;37799;52.390;6.136;2023-08-07T13:56:56;4.07;;;0.55;;
37201;SDS011;37799;52.390;6.136;2023-08-07T13:59:21;6.72;;;0.47;;
37201;SDS011;37799;52.390;6.136;2023-08-07T14:01:47;1.40;;;0.22;;
37201;SDS011;37799;52.390;6.136;2023-08-07T14:04:12;2.20;;;0.30;;
37201;SDS011;37799;52.390;6.136;2023-08-07T14:06:39;2.65;;;0.20;;
37201;SDS011;37799;52.390;6.136;2023-08-07T14:09:06;2.45;;;0.47;;
37201;SDS011;37799;52.390;6.136;2023-08-07T14:11:31;1.88;;;0.30;;
37201;SDS011;37799;52.390;6.136;2023-08-07T14:13:56;2.05;;;0.50;;
37201;SDS011;37799;52.390;6.136;2023-08-07T14:16:22;2.20;;;0.35;;
37201;SDS011;37799;52.390;6.136;2023-08-07T14:18:48;3.97;;;0.40;;
37201;SDS011;37799;52.390;6.136;2023-08-07T14:21:13;1.92;;;0.30;;
37201;SDS011;37799;52.390;6.136;2023-08-07T14:23:39;1.85;;;0.30;;
37201;SDS011;37799;52.390;6.136;2023-08-07T14:26:07;2.10;;;0.30;;
37201;SDS011;37799;52.390;6.136;2023-08-07T14:28:33;4.60;;;0.40;;
37201;SDS011;37799;52.390;6.136;2023-08-07T14:30:59;4.13;;;0.30;;
37201;SDS011;37799;52.390;6.136;2023-08-07T14:33:25;1.45;;;0.20;;
37201;SDS011;37799;52.390;6.136;2023-08-07T14:35:52;2.38;;;0.32;;
37201;SDS011;37799;52.390;6.136;2023-08-07T14:38:17;2.40;;;0.45;;
37201;SDS011;37799;52.390;6.136;2023-08-07T14:40:43;2.15;;;0.30;;
37201;SDS011;37799;52.390;6.136;2023-08-07T14:43:09;2.08;;;0.20;;
37201;SDS011;37799;52.390;6.136;2023-08-07T14:45:35;1.27;;;0.20;;
37201;SDS011;37799;52.390;6.136;2023-08-07T14:48:02;1.05;;;0.13;;
37201;SDS011;37799;52.390;6.136;2023-08-07T14:50:28;0.98;;;0.20;;
37201;SDS011;37799;52.390;6.136;2023-08-07T14:52:53;1.75;;;0.20;;
37201;SDS011;37799;52.390;6.136;2023-08-07T14:55:19;2.45;;;0.20;;
37201;SDS011;37799;52.390;6.136;2023-08-07T14:57:44;1.23;;;0.15;;